Time;durP1;ratioP1;P1;durP2;ratioP2;P2;SDS_P1;SDS_P2;PMS_P1;PMS_P2;Temp;Humidity;BMP_temperature;BMP_pressure;BME280_temperature;BME280_humidity;BME280_pressure;Samples;Min_cycle;Max_cycle;Signal;HPM_P1;HPM_P2
2023/01/04 00:01:23;;;;;;;6.45;2.88;;;;;;;7.43;100.00;101906.00;5051772;28;20024;-54
2023/01/04 00:03:48;;;;;;;12.13;3.63;;;;;;;7.42;100.00;101904.28;5052797;28;20025;-54
2023/01/04 00:06:15;;;;;;;13.55;3.50;;;;;;;7.41;100.00;101894.63;5052035;28;20035;-53
2023/01/04 00:08:40;;;;;;;9.63;3.25;;;;;;;7.39;100.00;101892.06;5052807;28;20032;-54
2023/01/04 00:11:18;;;;;;;12.18;3.50;;;;;;;7.43;100.00;101883.97;5051367;28;20025;-55
2023/01/04 00:13:45;;;;;;;6.70;3.25;;;;;;;7.40;100.00;101879.72;5052718;28;20061;-52
2023/01/04 00:16:15;;;;;;;12.00;3.47;;;;;;;7.38;100.00;101868.34;5051974;28;20479;-53
2023/01/04 00:18:41;;;;;;;12.60;3.45;;;;;;;7.38;100.00;101869.22;5051643;28;20128;-54
2023/01/04 00:21:12;;;;;;;9.25;3.50;;;;;;;7.38;100.00;101857.78;5052072;28;20111;-53
2023/01/04 00:23:38;;;;;;;11.25;3.58;;;;;;;7.36;100.00;101871.06;5051995;28;20032;-56
2023/01/04 00:26:08;;;;;;;12.95;3.65;;;;;;;7.38;100.00;101850.69;5050946;28;20070;-53
2023/01/04 00:28:33;;;;;;;9.75;3.30;;;;;;;7.38;100.00;101847.22;5049514;28;20491;-56
2023/01/04 00:31:03;;;;;;;8.85;3.20;;;;;;;7.38;100.00;101834.84;5052090;28;20025;-52
2023/01/04 00:33:28;;;;;;;9.65;3.53;;;;;;;7.40;100.00;101832.13;5051896;28;20033;-56
2023/01/04 00:35:54;;;;;;;10.98;3.20;;;;;;;7.41;100.00;101828.53;5049988;28;20052;-53
2023/01/04 00:38:19;;;;;;;7.00;3.28;;;;;;;7.39;100.00;101836.56;5051579;28;20630;-52
2023/01/04 00:40:44;;;;;;;8.52;3.28;;;;;;;7.43;100.00;101821.41;5051951;28;20055;-53
2023/01/04 00:43:09;;;;;;;8.52;3.20;;;;;;;7.44;100.00;101820.47;5051486;28;20360;-56
2023/01/04 00:45:35;;;;;;;8.60;3.10;;;;;;;7.45;100.00;101827.47;5042145;28;20390;-54
2023/01/04 00:48:00;;;;;;;6.72;3.13;;;;;;;7.45;100.00;101816.06;5052220;28;20166;-55
2023/01/04 00:50:25;;;;;;;7.15;3.38;;;;;;;7.45;100.00;101816.91;5051170;28;20383;-51
2023/01/04 00:52:50;;;;;;;7.35;2.85;;;;;;;7.50;100.00;101819.34;5051414;28;20064;-51
2023/01/04 00:55:16;;;;;;;5.35;2.90;;;;;;;7.52;100.00;101813.03;5051610;28;20467;-51
2023/01/04 00:57:41;;;;;;;5.57;3.00;;;;;;;7.56;100.00;101804.03;5051909;28;20032;-52
2023/01/04 01:00:07;;;;;;;7.82;2.88;;;;;;;7.57;100.00;101805.72;5049907;28;20495;-54
2023/01/04 01:02:32;;;;;;;7.80;3.00;;;;;;;7.60;100.00;101792.38;5051591;28;20029;-54
2023/01/04 01:04:57;;;;;;;6.28;2.47;;;;;;;7.62;100.00;101787.00;5051587;28;21050;-51
2023/01/04 01:07:22;;;;;;;5.20;2.30;;;;;;;7.65;100.00;101793.94;5051663;28;20048;-51
2023/01/04 01:09:48;;;;;;;6.47;2.63;;;;;;;7.66;100.00;101788.59;5050933;28;20035;-52
2023/01/04 01:12:13;;;;;;;4.05;2.47;;;;;;;7.67;100.00;101785.00;5051679;28;20066;-53
2023/01/04 01:14:38;;;;;;;4.63;2.10;;;;;;;7.69;100.00;101787.56;5051653;28;20029;-52
2023/01/04 01:17:03;;;;;;;6.47;2.50;;;;;;;7.72;100.00;101790.91;5051062;28;20160;-53
2023/01/04 01:19:29;;;;;;;5.38;2.63;;;;;;;7.73;100.00;101784.69;5051413;28;20025;-53
2023/01/04 01:21:56;;;;;;;5.47;2.35;;;;;;;7.74;100.00;101778.50;5051562;28;20074;-51
2023/01/04 01:24:21;;;;;;;4.25;2.25;;;;;;;7.75;100.00;101777.53;5051714;28;20025;-52
2023/01/04 01:26:46;;;;;;;7.10;2.70;;;;;;;7.77;100.00;101783.59;5050270;28;20036;-54
2023/01/04 01:29:12;;;;;;;4.90;2.38;;;;;;;7.78;100.00;101771.25;5051764;28;20070;-53
2023/01/04 01:31:38;;;;;;;4.20;1.90;;;;;;;7.82;100.00;101769.31;5051721;28;20079;-55
2023/01/04 01:34:04;;;;;;;2.88;2.08;;;;;;;7.80;100.00;101776.47;5049516;28;20025;-55
2023/01/04 01:36:29;;;;;;;7.22;2.92;;;;;;;7.80;100.00;101765.88;5051367;28;20037;-53
2023/01/04 01:38:55;;;;;;;4.20;2.10;;;;;;;7.82;100.00;101774.59;5050885;28;20430;-54
2023/01/04 01:41:26;;;;;;;8.50;2.10;;;;;;;7.81;100.00;101765.81;5051671;28;20047;-52
2023/01/04 01:43:56;;;;;;;4.85;2.10;;;;;;;7.82;100.00;101767.50;5045588;28;20052;-56
2023/01/04 01:46:44;;;;;;;6.15;2.60;;;;;;;7.82;100.00;101762.22;5043271;28;20023;-55
2023/01/04 01:49:24;;;;;;;6.18;2.63;;;;;;;7.83;100.00;101749.84;5040123;28;20053;-54
2023/01/04 01:51:52;;;;;;;2.70;2.13;;;;;;;7.82;100.00;101756.06;5050728;28;20045;-56
2023/01/04 01:54:25;;;;;;;4.03;2.30;;;;;;;7.85;100.00;101753.28;5051607;28;20025;-53
2023/01/04 01:56:52;;;;;;;2.97;1.90;;;;;;;7.87;100.00;101752.25;5055214;28;20051;-56
2023/01/04 01:59:19;;;;;;;4.32;2.25;;;;;;;7.91;100.00;101745.00;5054898;28;20025;-57
2023/01/04 02:01:44;;;;;;;2.95;2.05;;;;;;;7.91;100.00;101761.75;5054098;28;20359;-56
2023/01/04 02:04:11;;;;;;;5.65;2.10;;;;;;;7.92;100.00;101744.09;5055722;28;20079;-56
2023/01/04 02:06:40;;;;;;;4.85;2.00;;;;;;;7.92;100.00;101750.22;5054342;28;20124;-57
2023/01/04 02:09:07;;;;;;;;;;;;;;;7.96;100.00;101749.16;5056137;28;20040;-57
2023/01/04 02:11:32;;;;;;;3.55;2.20;;;;;;;7.97;100.00;101752.66;5054836;28;20370;-57
2023/01/04 02:16:43;;;;;;;3.88;2.10;;;;;;;8.00;100.00;101762.22;5044838;28;20032;-56
2023/01/04 02:19:45;;;;;;;3.17;1.80;;;;;;;8.01;100.00;101758.63;5052858;28;20029;-57
2023/01/04 02:22:41;;;;;;;2.30;1.85;;;;;;;8.03;100.00;101749.69;5048403;28;20278;-55
2023/01/04 02:25:12;;;;;;;4.82;2.08;;;;;;;8.06;100.00;101751.31;5054465;28;20440;-56
2023/01/04 02:27:51;;;;;;;1.85;1.67;;;;;;;8.08;100.00;101770.63;5054156;28;20108;-56
2023/01/04 02:30:31;;;;;;;1.90;1.70;;;;;;;8.10;100.00;101752.88;5054503;28;20060;-56
2023/01/04 02:33:08;;;;;;;3.00;1.77;;;;;;;8.10;100.00;101745.78;5054693;28;20082;-56
2023/01/04 02:36:02;;;;;;;3.05;1.85;;;;;;;8.15;100.00;101734.97;5054143;28;20021;-56
2023/01/04 02:38:39;;;;;;;2.47;1.63;;;;;;;8.18;100.00;101724.22;5053274;28;20036;-57
2023/01/04 02:41:12;;;;;;;1.70;1.48;;;;;;;8.18;100.00;101700.41;5054150;28;20513;-55
2023/01/04 02:47:03;;;;;;;2.28;1.60;;;;;;;8.24;100.00;101700.06;5049678;28;20051;-55
2023/01/04 02:52:12;;;;;;;2.30;1.50;;;;;;;8.28;100.00;101695.50;5053542;28;20036;-56
2023/01/04 02:54:38;;;;;;;3.97;1.80;;;;;;;8.31;100.00;101695.31;5053475;28;20387;-55
2023/01/04 02:57:24;;;;;;;3.05;1.63;;;;;;;8.30;100.00;101690.97;5052535;28;20055;-57
2023/01/04 03:00:09;;;;;;;1.67;1.58;;;;;;;8.32;100.00;101683.78;5049568;28;20067;-55
2023/01/04 03:06:16;;;;;;;2.42;1.60;;;;;;;8.37;100.00;101686.19;5054703;28;20063;-57
2023/01/04 03:08:39;;;;;;;3.22;1.52;;;;;;;8.36;100.00;101674.78;5035916;28;20068;-57
2023/01/04 03:14:25;;;;;;;3.17;2.00;;;;;;;8.41;100.00;101669.19;5037407;28;20103;-56
2023/01/04 03:16:52;;;;;;;1.73;1.58;;;;;;;8.42;100.00;101661.19;5042514;28;20111;-57
2023/01/04 03:35:21;;;;;;;2.55;1.42;;;;;;;8.46;100.00;101653.94;5051824;28;20095;-55
2023/01/04 03:36:25;;;;;;;2.13;1.80;;;;;;;8.55;100.00;101658.75;5052239;28;20446;-56
2023/01/04 03:48:28;;;;;;;2.30;2.10;;;;;;;8.64;100.00;101628.25;5053413;28;20518;-56
2023/01/04 03:51:06;;;;;;;3.83;2.13;;;;;;;8.67;100.00;101626.28;5045427;28;20144;-55
2023/01/04 03:53:36;;;;;;;3.13;2.20;;;;;;;8.68;100.00;101619.22;5041489;28;20029;-56
2023/01/04 03:56:02;;;;;;;4.75;2.20;;;;;;;8.70;100.00;101627.91;5052802;28;20399;-54
2023/01/04 03:58:28;;;;;;;3.33;2.25;;;;;;;8.72;100.00;101625.19;5051638;28;20029;-55
2023/01/04 04:01:02;;;;;;;2.10;1.90;;;;;;;8.70;100.00;101618.16;5050659;28;20025;-57
2023/01/04 04:08:55;;;;;;;4.35;2.10;;;;;;;8.77;100.00;101615.19;5050814;28;20044;-54
2023/01/04 04:11:29;;;;;;;3.45;2.30;;;;;;;8.78;100.00;101596.56;5053172;28;20033;-56
2023/01/04 04:13:55;;;;;;;4.18;2.33;;;;;;;8.80;100.00;101615.84;5052447;28;20025;-53
2023/01/04 04:16:20;;;;;;;2.25;2.00;;;;;;;8.85;100.00;101615.59;5044702;28;20017;-55
2023/01/04 04:18:46;;;;;;;3.08;2.17;;;;;;;8.86;100.00;101602.28;5045681;28;20395;-56
2023/01/04 04:21:12;;;;;;;2.60;2.20;;;;;;;8.87;100.00;101598.66;5052919;28;20082;-56
2023/01/04 04:23:37;;;;;;;3.42;2.40;;;;;;;8.87;100.00;101593.38;5052061;28;20124;-56
2023/01/04 04:26:03;;;;;;;2.75;2.40;;;;;;;8.88;100.00;101588.94;5052305;28;20124;-57
2023/01/04 04:28:28;;;;;;;3.13;2.33;;;;;;;8.89;100.00;101588.84;5052214;28;20033;-55
2023/01/04 04:30:54;;;;;;;2.60;2.40;;;;;;;8.89;100.00;101580.91;5052481;28;20040;-56
2023/01/04 04:33:19;;;;;;;3.10;2.42;;;;;;;8.93;100.00;101572.78;5051632;28;20033;-56
2023/01/04 04:35:48;;;;;;;3.20;2.45;;;;;;;8.96;100.00;101584.06;5052252;28;20471;-55
2023/01/04 04:38:13;;;;;;;4.32;2.70;;;;;;;8.96;100.00;101562.88;5052073;28;20117;-55
2023/01/04 04:43:22;;;;;;;3.05;2.33;;;;;;;9.03;100.00;101555.41;5051206;28;20395;-56
2023/01/04 04:45:47;;;;;;;4.55;2.40;;;;;;;9.05;100.00;101554.34;5052178;28;20025;-55
2023/01/04 04:48:13;;;;;;;8.27;2.85;;;;;;;9.09;100.00;101560.31;5050918;28;20044;-56
2023/01/04 04:50:38;;;;;;;3.33;2.38;;;;;;;9.12;100.00;101559.31;5052363;28;20024;-52
2023/01/04 04:53:03;;;;;;;2.45;2.22;;;;;;;9.12;100.00;101549.53;5051344;28;20116;-57
2023/01/04 04:55:28;;;;;;;2.60;2.33;;;;;;;9.14;100.00;101549.47;5052000;28;20036;-55
2023/01/04 04:57:54;;;;;;;5.30;2.60;;;;;;;9.15;100.00;101541.41;5051449;28;20763;-55
2023/01/04 05:00:19;;;;;;;3.00;2.30;;;;;;;9.18;100.00;101533.28;5051253;28;20021;-52
2023/01/04 05:02:44;;;;;;;4.03;2.50;;;;;;;9.21;100.00;101537.56;5051326;28;20083;-54
2023/01/04 05:05:09;;;;;;;2.97;2.60;;;;;;;9.20;100.00;101549.94;5051893;28;20033;-54
2023/01/04 05:07:35;;;;;;;4.85;2.45;;;;;;;9.24;100.00;101540.00;5051642;28;20064;-56
2023/01/04 05:10:00;;;;;;;4.07;2.50;;;;;;;9.27;100.00;101547.78;5050916;28;20029;-56
2023/01/04 05:15:09;;;;;;;6.45;2.53;;;;;;;9.33;100.00;101543.94;5050251;28;20111;-56
2023/01/04 05:17:35;;;;;;;3.00;2.00;;;;;;;9.32;100.00;101532.44;5042511;28;20445;-53
2023/01/04 05:20:00;;;;;;;4.03;2.55;;;;;;;9.34;100.00;101530.59;5051660;28;20383;-55
2023/01/04 05:22:25;;;;;;;4.30;2.40;;;;;;;9.36;100.00;101520.72;5056371;28;20013;-56
2023/01/04 05:24:51;;;;;;;4.47;2.42;;;;;;;9.37;100.00;101521.56;5050948;28;20589;-53
2023/01/04 05:27:16;;;;;;;5.60;2.25;;;;;;;9.39;100.00;101523.19;5051516;28;20029;-55
2023/01/04 05:32:25;;;;;;;5.97;2.42;;;;;;;9.48;100.00;101512.97;5055618;28;20094;-53
2023/01/04 05:34:50;;;;;;;5.82;2.22;;;;;;;9.49;100.00;101515.50;5054826;28;20492;-56
2023/01/04 05:37:15;;;;;;;3.22;2.17;;;;;;;9.51;100.00;101515.41;5054838;28;20036;-53
2023/01/04 05:39:41;;;;;;;7.55;2.40;;;;;;;9.52;100.00;101507.38;5055226;28;20407;-53
2023/01/04 05:42:26;;;;;;;5.45;2.50;;;;;;;9.57;100.00;101505.28;5055665;28;20039;-54
2023/01/04 05:44:53;;;;;;;3.95;2.30;;;;;;;9.57;100.00;101513.25;5054704;28;20451;-57
2023/01/04 05:47:19;;;;;;;3.67;1.90;;;;;;;9.57;100.00;101509.75;5054231;28;20025;-55
2023/01/04 05:49:44;;;;;;;2.67;2.00;;;;;;;9.59;100.00;101500.75;5054913;28;20482;-54
2023/01/04 05:52:10;;;;;;;6.90;2.28;;;;;;;9.62;100.00;101510.31;5054862;28;20032;-56
2023/01/04 05:54:35;;;;;;;3.22;2.03;;;;;;;9.61;100.00;101496.22;5055099;28;20457;-57
2023/01/04 05:57:00;;;;;;;3.03;2.40;;;;;;;9.63;100.00;101480.19;5055156;28;20033;-54
2023/01/04 05:59:26;;;;;;;2.30;1.88;;;;;;;9.63;100.00;101488.16;5054076;28;20043;-52
2023/01/04 06:01:51;;;;;;;4.65;2.10;;;;;;;9.67;100.00;101486.16;5055056;28;20045;-55
2023/01/04 06:04:16;;;;;;;3.05;1.90;;;;;;;9.67;100.00;101492.31;5054446;28;20048;-53
2023/01/04 06:06:41;;;;;;;3.25;2.05;;;;;;;9.68;100.00;101477.28;5054977;28;20029;-54
2023/01/04 06:09:07;;;;;;;5.07;1.80;;;;;;;9.71;100.00;101495.63;5054223;28;20025;-54
2023/01/04 06:11:32;;;;;;;3.67;1.70;;;;;;;9.73;100.00;101509.66;5054922;28;20475;-56
2023/01/04 06:13:57;;;;;;;3.30;2.17;;;;;;;9.73;100.00;101499.91;5054995;28;20356;-55
2023/01/04 06:16:23;;;;;;;4.60;2.00;;;;;;;9.76;100.00;101501.53;5045352;28;20083;-56
2023/01/04 06:18:48;;;;;;;3.08;1.88;;;;;;;9.75;100.00;101505.94;5049728;28;20094;-54
2023/01/04 06:21:13;;;;;;;2.22;1.60;;;;;;;9.76;100.00;101504.16;5054399;28;20563;-54
2023/01/04 06:23:39;;;;;;;3.95;1.70;;;;;;;9.77;100.00;101505.84;5054365;28;20041;-55
2023/01/04 06:26:04;;;;;;;4.10;1.80;;;;;;;9.80;100.00;101514.47;5054093;28;20490;-55
2023/01/04 06:28:29;;;;;;;4.20;1.95;;;;;;;9.78;100.00;101489.84;5054462;28;20112;-54
2023/01/04 06:30:55;;;;;;;3.05;1.70;;;;;;;9.81;100.00;101478.19;5054041;28;21054;-54
2023/01/04 06:33:20;;;;;;;2.78;1.83;;;;;;;9.81;100.00;101478.19;5054487;28;20025;-55
2023/01/04 06:35:55;;;;;;;2.97;2.20;;;;;;;9.82;100.00;101480.75;5054507;28;20386;-54
2023/01/04 06:38:20;;;;;;;2.95;1.77;;;;;;;9.79;100.00;101474.78;5054253;28;20108;-53
2023/01/04 06:40:46;;;;;;;6.30;2.15;;;;;;;9.79;100.00;101475.66;5053391;28;20435;-56
2023/01/04 06:43:11;;;;;;;3.35;1.80;;;;;;;9.79;100.00;101472.13;5054209;28;20025;-55
2023/01/04 06:45:36;;;;;;;5.43;1.85;;;;;;;9.80;100.00;101498.56;5053942;28;20094;-53
2023/01/04 06:48:02;;;;;;;2.03;1.88;;;;;;;9.82;100.00;101501.97;5051988;28;20032;-55
2023/01/04 06:50:27;;;;;;;2.22;1.70;;;;;;;9.82;100.00;101495.81;5054305;28;20025;-54
2023/01/04 06:52:52;;;;;;;3.63;1.80;;;;;;;9.84;100.00;101504.50;5052159;28;20035;-58
2023/01/04 06:55:17;;;;;;;2.72;1.60;;;;;;;9.85;100.00;101497.44;5054150;28;20017;-55
2023/01/04 06:57:43;;;;;;;2.35;1.60;;;;;;;9.84;100.00;101493.91;5053454;28;20021;-58
2023/01/04 07:00:09;;;;;;;3.38;2.00;;;;;;;9.86;100.00;101478.75;5053244;28;20032;-55
2023/01/04 07:02:34;;;;;;;4.18;1.90;;;;;;;9.89;100.00;101477.69;5044685;28;20021;-58
2023/01/04 07:05:00;;;;;;;1.55;1.50;;;;;;;9.90;100.00;101482.91;5045296;28;20522;-53
2023/01/04 07:07:26;;;;;;;2.47;1.67;;;;;;;9.90;100.00;101488.22;5053039;28;20433;-60
2023/01/04 07:09:51;;;;;;;2.10;1.40;;;;;;;9.94;100.00;101478.25;5053830;28;20021;-58
2023/01/04 07:12:16;;;;;;;3.55;1.98;;;;;;;9.93;100.00;101484.53;5052734;28;20033;-58
2023/01/04 07:14:42;;;;;;;3.63;1.88;;;;;;;9.95;100.00;101475.50;5053826;28;20119;-58
2023/01/04 07:17:07;;;;;;;3.10;1.60;;;;;;;9.99;100.00;101477.03;5039324;28;20475;-58
2023/01/04 07:19:32;;;;;;;2.38;1.60;;;;;;;10.03;100.00;101451.13;5035086;28;20083;-58
2023/01/04 07:21:58;;;;;;;1.90;1.40;;;;;;;10.06;100.00;101452.72;5035015;28;20034;-57
2023/01/04 07:24:24;;;;;;;4.30;1.75;;;;;;;10.07;100.00;101449.13;5042786;28;20103;-58
2023/01/04 07:26:50;;;;;;;3.53;1.65;;;;;;;10.11;100.00;101442.69;5051358;28;20025;-57
2023/01/04 07:29:18;;;;;;;4.40;1.50;;;;;;;10.14;100.00;101443.34;5049472;28;20048;-56
2023/01/04 07:31:46;;;;;;;1.95;1.50;;;;;;;10.14;100.00;101450.44;5047628;28;20049;-56
2023/01/04 07:34:13;;;;;;;2.35;1.30;;;;;;;10.15;100.00;101445.03;5043690;28;20551;-55
2023/01/04 07:36:39;;;;;;;2.75;1.35;;;;;;;10.17;100.00;101447.56;5050174;28;20036;-55
2023/01/04 07:39:06;;;;;;;4.10;1.60;;;;;;;10.19;100.00;101437.69;5045773;28;20477;-56
2023/01/04 07:41:31;;;;;;;3.83;1.50;;;;;;;10.20;100.00;101439.41;5047219;28;20081;-56
2023/01/04 07:43:57;;;;;;;4.88;1.40;;;;;;;10.23;100.00;101435.72;5048205;28;20041;-55
2023/01/04 07:46:22;;;;;;;2.30;1.10;;;;;;;10.25;100.00;101439.97;5050749;28;20382;-55
2023/01/04 07:48:47;;;;;;;4.28;1.42;;;;;;;10.26;100.00;101438.16;5049794;28;20052;-53
2023/01/04 07:51:13;;;;;;;2.30;1.20;;;;;;;10.29;100.00;101437.94;5048124;28;20028;-56
2023/01/04 07:53:38;;;;;;;3.40;1.77;;;;;;;10.29;100.00;101425.56;5046238;28;20561;-54
2023/01/04 07:56:03;;;;;;;3.70;1.38;;;;;;;10.31;100.00;101418.31;5048807;28;20029;-57
2023/01/04 07:58:33;;;;;;;2.67;1.65;;;;;;;10.36;100.00;101416.25;5048111;28;20932;-58
2023/01/04 08:01:09;;;;;;;5.70;1.63;;;;;;;10.37;100.00;101409.13;5045729;28;20029;-53
2023/01/04 08:03:35;;;;;;;4.47;1.48;;;;;;;10.41;100.00;101410.63;5045192;28;20041;-59
2023/01/04 08:06:05;;;;;;;2.85;1.60;;;;;;;10.43;100.00;101415.84;5047985;28;20040;-52
2023/01/04 08:08:31;;;;;;;5.20;1.83;;;;;;;10.46;100.00;101424.47;5049671;28;20036;-56
2023/01/04 08:11:01;;;;;;;3.60;1.65;;;;;;;10.48;100.00;101430.50;5044338;28;20357;-56
2023/01/04 08:13:34;;;;;;;5.18;1.52;;;;;;;10.46;100.00;101432.41;5046076;28;20737;-52
2023/01/04 08:16:00;;;;;;;6.13;1.80;;;;;;;10.49;100.00;101418.94;5035101;28;20029;-54
2023/01/04 08:18:25;;;;;;;4.93;2.10;;;;;;;10.52;100.00;101428.50;5034996;28;20094;-54
2023/01/04 08:21:00;;;;;;;2.30;1.55;;;;;;;10.52;100.00;101428.50;5035138;28;20033;-54
2023/01/04 08:23:26;;;;;;;3.35;1.42;;;;;;;10.54;100.00;101424.78;5037078;28;20838;-56
2023/01/04 08:25:51;;;;;;;5.47;1.40;;;;;;;10.55;100.00;101430.94;5034139;28;20022;-55
2023/01/04 08:28:16;;;;;;;3.33;1.55;;;;;;;10.55;100.00;101436.25;5032881;28;20072;-56
2023/01/04 08:30:42;;;;;;;3.28;1.35;;;;;;;10.57;100.00;101442.31;5035826;28;20472;-54
2023/01/04 08:33:16;;;;;;;4.18;1.45;;;;;;;10.59;100.00;101429.81;5035280;28;20077;-54
2023/01/04 08:35:41;;;;;;;3.78;1.60;;;;;;;10.59;100.00;101451.06;5034829;28;20057;-58
2023/01/04 08:38:07;;;;;;;9.90;1.95;;;;;;;10.61;100.00;101449.13;5038452;28;20131;-53
2023/01/04 08:40:32;;;;;;;9.18;1.77;;;;;;;10.65;100.00;101452.44;5049052;28;20025;-54
2023/01/04 08:42:57;;;;;;;6.07;1.70;;;;;;;10.64;100.00;101443.63;5049371;28;20032;-55
2023/01/04 08:45:22;;;;;;;5.75;1.88;;;;;;;10.64;100.00;101438.31;5049611;28;20518;-57
2023/01/04 08:47:48;;;;;;;6.55;1.80;;;;;;;10.64;100.00;101448.06;5039061;28;20056;-57
2023/01/04 08:50:15;;;;;;;3.05;1.63;;;;;;;10.65;100.00;101455.94;5042932;28;20105;-56
2023/01/04 08:52:41;;;;;;;6.93;1.60;;;;;;;10.66;100.00;101452.34;5033219;28;20022;-55
2023/01/04 08:55:07;;;;;;;6.20;1.80;;;;;;;10.68;100.00;101454.91;5039716;28;20399;-57
2023/01/04 08:57:33;;;;;;;8.50;1.88;;;;;;;10.69;100.00;101445.94;5049451;28;20033;-56
2023/01/04 08:59:59;;;;;;;5.40;1.60;;;;;;;10.73;100.00;101442.16;5045467;28;20032;-55
2023/01/04 09:02:26;;;;;;;3.10;1.80;;;;;;;10.74;100.00;101451.78;5042580;28;20033;-57
2023/01/04 09:04:58;;;;;;;5.05;1.65;;;;;;;10.77;100.00;101456.06;5048096;28;20372;-56
2023/01/04 09:07:25;;;;;;;6.20;1.70;;;;;;;10.81;100.00;101446.91;5037179;28;20392;-56
2023/01/04 09:09:50;;;;;;;5.43;1.80;;;;;;;10.81;100.00;101445.13;5033286;28;20053;-57
2023/01/04 09:12:16;;;;;;;4.72;1.65;;;;;;;10.82;100.00;101454.78;5045964;28;20107;-54
2023/01/04 09:14:41;;;;;;;4.88;1.50;;;;;;;10.84;100.00;101447.59;5051484;28;20026;-55
2023/01/04 09:17:07;;;;;;;6.65;1.58;;;;;;;10.85;100.00;101449.28;5056908;28;20068;-54
2023/01/04 09:19:32;;;;;;;2.78;1.60;;;;;;;10.88;100.00;101453.53;5051337;28;20025;-54
2023/01/04 09:21:58;;;;;;;4.28;1.63;;;;;;;10.86;100.00;101442.16;5057038;28;20440;-54
2023/01/04 09:24:23;;;;;;;2.78;1.38;;;;;;;10.90;100.00;101451.63;5049856;28;20025;-56
2023/01/04 09:26:49;;;;;;;4.45;1.92;;;;;;;10.90;100.00;101446.31;5043085;28;20028;-55
2023/01/04 09:29:14;;;;;;;3.08;1.45;;;;;;;10.88;100.00;101449.06;5036865;28;20014;-55
2023/01/04 09:31:39;;;;;;;6.68;1.50;;;;;;;10.90;100.00;101454.28;5017111;28;20697;-54
2023/01/04 09:34:05;;;;;;;6.07;1.70;;;;;;;10.89;100.00;101455.22;5041899;28;20052;-54
2023/01/04 09:36:31;;;;;;;2.85;1.40;;;;;;;10.88;100.00;101459.69;5047610;28;20163;-56
2023/01/04 09:38:56;;;;;;;2.90;1.45;;;;;;;10.87;100.00;101454.47;5049039;28;20287;-52
2023/01/04 09:41:25;;;;;;;4.53;1.83;;;;;;;10.86;100.00;101442.16;5042277;28;20029;-56
2023/01/04 09:43:54;;;;;;;4.63;1.80;;;;;;;10.83;100.00;101447.69;5044897;28;20485;-55
2023/01/04 09:46:29;;;;;;;3.00;1.30;;;;;;;10.79;100.00;101439.09;5054704;28;20029;-52
2023/01/04 09:49:18;;;;;;;5.90;2.10;;;;;;;10.80;100.00;101445.25;5035569;28;20049;-55
2023/01/04 09:52:04;;;;;;;3.20;1.55;;;;;;;10.79;100.00;101452.38;5027510;28;20056;-54
2023/01/04 09:54:56;;;;;;;6.40;1.77;;;;;;;10.77;100.00;101456.06;5050760;28;20065;-56
2023/01/04 09:57:28;;;;;;;5.80;1.85;;;;;;;10.74;100.00;101451.78;5053403;28;20032;-55
2023/01/04 10:00:01;;;;;;;6.15;1.90;;;;;;;10.74;100.00;101446.47;5043587;28;20083;-53
2023/01/04 10:02:41;;;;;;;4.53;1.90;;;;;;;10.77;100.00;101435.66;5056547;28;20061;-56
2023/01/04 10:05:15;;;;;;;2.72;1.77;;;;;;;10.76;100.00;101449.03;5046980;28;20017;-54
2023/01/04 10:07:40;;;;;;;7.50;2.28;;;;;;;10.76;100.00;101441.94;5041136;28;20311;-53
2023/01/04 10:10:13;;;;;;;5.82;2.20;;;;;;;10.77;100.00;101433.00;5037010;28;20687;-55
2023/01/04 10:13:08;;;;;;;5.57;2.42;;;;;;;10.77;100.00;101432.16;5042427;28;20052;-52
2023/01/04 10:15:39;;;;;;;6.63;2.00;;;;;;;10.74;100.00;101426.09;5040158;28;20091;-57
2023/01/04 10:18:21;;;;;;;5.63;2.17;;;;;;;10.75;100.00;101424.28;5038311;28;20048;-54
2023/01/04 10:21:02;;;;;;;5.80;2.42;;;;;;;10.73;100.00;101423.56;5036707;28;20307;-57
2023/01/04 10:23:50;;;;;;;5.95;2.47;;;;;;;10.73;100.00;101435.00;5045074;28;20437;-53
2023/01/04 10:26:38;;;;;;;2.93;2.10;;;;;;;10.73;100.00;101431.53;5029822;28;20478;-56
2023/01/04 10:29:24;;;;;;;7.32;2.40;;;;;;;10.73;100.00;101428.88;5049190;28;20029;-55
2023/01/04 10:31:54;;;;;;;5.82;2.08;;;;;;;10.72;100.00;101438.66;5051599;28;20037;-53
2023/01/04 10:34:27;;;;;;;4.57;2.15;;;;;;;10.73;100.00;101439.50;5042442;28;20036;-54
2023/01/04 10:36:58;;;;;;;5.90;2.33;;;;;;;10.72;100.00;101435.13;5051033;28;20025;-56
2023/01/04 10:39:28;;;;;;;3.78;2.10;;;;;;;10.72;100.00;101433.34;5052784;28;20021;-53
2023/01/04 10:42:02;;;;;;;6.57;2.08;;;;;;;10.72;100.00;101421.84;5051530;28;20041;-56
2023/01/04 10:44:56;;;;;;;5.05;2.20;;;;;;;10.74;100.00;101419.91;5052628;28;20086;-57
2023/01/04 10:47:47;;;;;;;6.50;2.40;;;;;;;10.74;100.00;101410.16;5043028;28;20017;-52
2023/01/04 10:50:41;;;;;;;7.68;2.50;;;;;;;10.75;100.00;101408.34;5046049;28;20036;-53
2023/01/04 10:53:15;;;;;;;7.10;2.22;;;;;;;10.74;100.00;101412.81;5047061;28;20029;-54
2023/01/04 10:55:57;;;;;;;8.35;2.22;;;;;;;10.76;100.00;101398.56;5051939;28;20112;-52
2023/01/04 10:58:33;;;;;;;6.43;2.35;;;;;;;10.75;100.00;101403.03;5052418;28;20075;-54
2023/01/04 11:01:08;;;;;;;4.93;1.85;;;;;;;10.74;100.00;101402.19;5050600;28;20726;-57
2023/01/04 11:03:57;;;;;;;4.38;2.00;;;;;;;10.76;100.00;101410.06;5042682;28;20033;-56
2023/01/04 11:06:41;;;;;;;;;;;;;;;10.81;100.00;101405.28;5050146;28;20104;-53
2023/01/04 11:09:20;;;;;;;5.88;2.00;;;;;;;10.77;100.00;101397.63;5050416;28;20278;-51
2023/01/04 11:11:47;;;;;;;6.13;1.70;;;;;;;10.77;100.00;101410.91;5042416;28;20139;-54
2023/01/04 11:14:13;;;;;;;3.63;1.45;;;;;;;10.77;100.00;101418.88;5046185;28;20044;-52
2023/01/04 11:16:42;;;;;;;3.72;1.70;;;;;;;10.76;100.00;101420.69;5041581;28;20090;-54
2023/01/04 11:19:09;;;;;;;2.17;1.35;;;;;;;10.77;100.00;101408.25;5048136;28;20021;-55
2023/01/04 11:21:48;;;;;;;3.53;1.65;;;;;;;10.80;100.00;101402.72;5030513;28;20029;-53
2023/01/04 11:24:15;;;;;;;2.70;1.27;;;;;;;10.78;100.00;101412.63;5045429;28;20055;-54
2023/01/04 11:26:44;;;;;;;3.17;1.23;;;;;;;10.79;100.00;101416.94;5047418;28;20068;-54
2023/01/04 11:29:31;;;;;;;3.35;1.23;;;;;;;10.79;100.00;101423.13;5050610;28;20025;-54
2023/01/04 11:32:00;;;;;;;1.83;1.10;;;;;;;10.79;100.00;101414.28;5046306;28;20064;-55
2023/01/04 11:34:44;;;;;;;;;;;;;;;10.82;100.00;101414.09;5050180;28;20035;-53
2023/01/04 11:37:28;;;;;;;2.70;1.40;;;;;;;10.81;100.00;101407.06;5046940;28;19962;-52
2023/01/04 11:40:17;;;;;;;2.00;1.10;;;;;;;10.81;100.00;101429.19;5050821;28;20075;-55
2023/01/04 11:43:14;;;;;;;2.92;1.42;;;;;;;10.83;100.00;101416.66;5038890;28;20127;-52
2023/01/04 11:45:40;;;;;;;1.40;1.10;;;;;;;10.81;100.00;101421.22;5038132;28;20383;-55
2023/01/04 11:48:13;;;;;;;1.50;1.10;;;;;;;10.81;100.00;101407.06;5039992;28;20034;-55
2023/01/04 11:50:43;;;;;;;2.85;0.93;;;;;;;10.79;100.00;101407.19;5048855;28;20029;-52
2023/01/04 11:53:22;;;;;;;1.05;1.00;;;;;;;10.81;100.00;101421.22;5046958;28;20437;-52
2023/01/04 11:55:48;;;;;;;0.82;0.82;;;;;;;10.79;100.00;101401.00;5039925;28;20029;-56
2023/01/04 11:58:16;;;;;;;3.58;1.10;;;;;;;10.79;100.00;101415.16;5048112;28;20063;-54
2023/01/04 12:01:00;;;;;;;3.03;0.93;;;;;;;10.82;100.00;101441.50;5042967;28;20060;-53
2023/01/04 12:03:27;;;;;;;2.20;1.13;;;;;;;10.81;100.00;101420.34;5040074;28;20051;-55
2023/01/04 12:05:53;;;;;;;1.15;0.90;;;;;;;10.81;100.00;101418.56;5041861;28;20021;-56
2023/01/04 12:08:34;;;;;;;0.80;0.80;;;;;;;10.79;100.00;101409.84;5044096;28;20096;-54
2023/01/04 12:11:02;;;;;;;1.83;0.80;;;;;;;10.83;100.00;101413.16;5035111;28;20040;-55
2023/01/04 12:13:28;;;;;;;1.90;0.98;;;;;;;10.83;100.00;101429.09;5032887;28;20049;-56
2023/01/04 12:16:28;;;;;;;0.63;0.63;;;;;;;10.84;100.00;101415.69;5033400;28;20026;-56
2023/01/04 12:18:53;;;;;;;1.05;0.80;;;;;;;10.83;100.00;101415.81;5034082;28;20367;-53
2023/01/04 12:21:21;;;;;;;1.05;0.98;;;;;;;10.84;100.00;101414.81;5036482;28;20032;-54
2023/01/04 12:23:48;;;;;;;1.02;0.70;;;;;;;10.84;100.00;101429.00;5033221;28;20520;-55
2023/01/04 12:26:15;;;;;;;0.90;0.70;;;;;;;10.87;100.00;101430.56;5032282;28;20079;-57